createdAt,value
2018-09-09T00:00:40.903Z,0
2018-09-09T00:01:41.598Z,0
2018-09-09T00:02:44.873Z,0
2018-09-09T00:03:41.069Z,0
2018-09-09T00:04:41.092Z,0
2018-09-09T00:05:41.107Z,0
2018-09-09T00:06:41.587Z,0
2018-09-09T00:07:40.866Z,0
2018-09-09T00:08:40.853Z,0
2018-09-09T00:09:40.811Z,0
2018-09-09T00:10:40.893Z,0
2018-09-09T00:11:40.787Z,0
2018-09-09T00:12:41.336Z,0
2018-09-09T00:13:40.808Z,0
2018-09-09T00:14:41.394Z,0
2018-09-09T00:15:41.372Z,0
2018-09-09T00:16:41.056Z,0
2018-09-09T00:17:40.812Z,0
2018-09-09T00:18:41.307Z,0
2018-09-09T00:19:41.052Z,0
2018-09-09T00:20:40.824Z,0
2018-09-09T00:21:41.057Z,0
2018-09-09T00:22:41.350Z,0
2018-09-09T00:23:41.293Z,0
2018-09-09T00:24:41.029Z,0
2018-09-09T00:25:41.356Z,0
2018-09-09T00:26:41.309Z,0
2018-09-09T00:27:40.773Z,0
2018-09-09T00:28:41.034Z,0
2018-09-09T00:29:40.776Z,0
2018-09-09T00:30:41.076Z,0
2018-09-09T00:31:40.509Z,0
2018-09-09T00:32:41.522Z,0
2018-09-09T00:33:41.564Z,0
2018-09-09T00:34:41.003Z,0
2018-09-09T00:35:40.870Z,0
2018-09-09T00:36:41.012Z,0
2018-09-09T00:37:41.035Z,0
2018-09-09T00:38:41.512Z,0
2018-09-09T00:39:40.803Z,0
2018-09-09T00:40:41.567Z,0
2018-09-09T00:41:40.998Z,0
2018-09-09T00:42:40.757Z,0
2018-09-09T00:43:41.254Z,0
2018-09-09T00:44:40.995Z,0
2018-09-09T00:45:41.238Z,0
2018-09-09T00:46:41.249Z,0
2018-09-09T00:47:41.023Z,0
2018-09-09T00:48:41.276Z,0
2018-09-09T00:49:41.235Z,0
2018-09-09T00:50:41.271Z,0
2018-09-09T00:51:41.222Z,0
2018-09-09T00:52:40.744Z,0
2018-09-09T00:53:41.238Z,0
2018-09-09T00:54:40.962Z,0
2018-09-09T00:55:41.249Z,0
2018-09-09T00:56:41.244Z,0
2018-09-09T00:57:41.231Z,0
2018-09-09T00:58:41.477Z,0
2018-09-09T00:59:41.469Z,0
2018-09-09T01:00:41.264Z,0
2018-09-09T01:01:40.977Z,0
2018-09-09T01:02:40.958Z,0
2018-09-09T01:03:42.514Z,0
2018-09-09T01:04:41.222Z,0
2018-09-09T01:05:40.801Z,0
2018-09-09T01:06:40.942Z,0
2018-09-09T01:07:41.218Z,0
2018-09-09T01:08:41.461Z,0
2018-09-09T01:09:40.694Z,0
2018-09-09T01:10:40.949Z,0
2018-09-09T01:11:41.439Z,0
2018-09-09T01:12:41.201Z,0
2018-09-09T01:13:40.971Z,0
2018-09-09T01:14:41.164Z,0
2018-09-09T01:15:41.217Z,0
2018-09-09T01:16:41.170Z,0
2018-09-09T01:17:41.436Z,0
2018-09-09T01:18:40.422Z,0
2018-09-09T01:19:41.425Z,0
2018-09-09T01:20:41.319Z,0
2018-09-09T01:21:41.177Z,0
2018-09-09T01:22:40.920Z,0
2018-09-09T01:23:40.933Z,0
2018-09-09T01:24:40.653Z,0
2018-09-09T01:25:41.485Z,0
2018-09-09T01:26:41.141Z,0
2018-09-09T01:27:41.428Z,0
2018-09-09T01:28:40.909Z,0
2018-09-09T01:29:40.890Z,0
2018-09-09T01:30:40.904Z,0
2018-09-09T01:31:41.403Z,0
2018-09-09T01:32:41.401Z,0
2018-09-09T01:33:42.764Z,0
2018-09-09T01:34:40.890Z,0
2018-09-09T01:35:40.911Z,0
2018-09-09T01:36:41.133Z,0
2018-09-09T01:37:40.881Z,0
2018-09-09T01:38:41.126Z,0
2018-09-09T01:39:41.124Z,0
2018-09-09T01:40:41.226Z,0
2018-09-09T01:41:41.121Z,0
2018-09-09T01:42:40.878Z,0
2018-09-09T01:43:40.634Z,0
2018-09-09T01:44:41.205Z,0
2018-09-09T01:45:40.631Z,0
2018-09-09T01:46:40.858Z,0
2018-09-09T01:47:40.899Z,0
2018-09-09T01:48:40.859Z,0
2018-09-09T01:49:41.125Z,0
2018-09-09T01:50:40.929Z,0
2018-09-09T01:51:40.834Z,0
2018-09-09T01:52:40.850Z,0
2018-09-09T01:53:40.827Z,0
2018-09-09T01:54:40.585Z,0
2018-09-09T01:55:41.428Z,0
2018-09-09T01:56:40.588Z,0
2018-09-09T01:57:41.379Z,0
2018-09-09T01:58:41.338Z,0
2018-09-09T01:59:41.084Z,0
2018-09-09T02:00:40.866Z,0
2018-09-09T02:01:40.837Z,0
2018-09-09T02:02:40.302Z,0
2018-09-09T02:03:40.802Z,0
2018-09-09T02:04:40.545Z,0
2018-09-09T02:05:40.913Z,0
2018-09-09T02:06:41.059Z,0
2018-09-09T02:07:40.859Z,0
2018-09-09T02:08:40.815Z,0
2018-09-09T02:09:40.536Z,0
2018-09-09T02:10:40.873Z,0
2018-09-09T02:11:40.809Z,0
2018-09-09T02:12:40.532Z,0
2018-09-09T02:13:41.083Z,0
2018-09-09T02:14:40.824Z,0
2018-09-09T02:15:40.867Z,0
2018-09-09T02:16:40.793Z,0
2018-09-09T02:17:41.053Z,0
2018-09-09T02:18:40.818Z,0
2018-09-09T02:19:40.802Z,0
2018-09-09T02:20:41.040Z,0
2018-09-09T02:21:41.059Z,0
2018-09-09T02:22:40.253Z,0
2018-09-09T02:23:41.037Z,0
2018-09-09T02:24:41.028Z,0
2018-09-09T02:25:41.086Z,0
2018-09-09T02:26:41.082Z,0
2018-09-09T02:27:41.418Z,0
2018-09-09T02:28:41.094Z,0
2018-09-09T02:29:41.022Z,0
2018-09-09T02:30:41.030Z,0
2018-09-09T02:31:41.298Z,0
2018-09-09T02:32:41.024Z,0
2018-09-09T02:33:40.771Z,0
2018-09-09T02:34:41.530Z,0
2018-09-09T02:35:40.764Z,0
2018-09-09T02:36:40.993Z,0
2018-09-09T02:37:40.767Z,0
2018-09-09T02:38:41.010Z,0
2018-09-09T02:39:40.477Z,0
2018-09-09T02:40:41.069Z,0
2018-09-09T02:41:41.271Z,0
2018-09-09T02:42:41.002Z,0
2018-09-09T02:43:40.812Z,0
2018-09-09T02:44:40.724Z,0
2018-09-09T02:45:41.350Z,0
2018-09-09T02:46:41.259Z,0
2018-09-09T02:47:40.717Z,0
2018-09-09T02:48:40.960Z,0
2018-09-09T02:49:40.464Z,0
2018-09-09T02:50:41.564Z,0
2018-09-09T02:51:40.741Z,0
2018-09-09T02:52:40.698Z,0
2018-09-09T02:53:40.963Z,0
2018-09-09T02:54:40.936Z,0
2018-09-09T02:55:41.220Z,0
2018-09-09T02:56:41.225Z,0
2018-09-09T02:57:41.207Z,0
2018-09-09T02:58:40.951Z,0
2018-09-09T02:59:40.707Z,0
2018-09-09T03:00:40.708Z,0
2018-09-09T03:01:41.203Z,0
2018-09-09T03:02:40.975Z,0
2018-09-09T03:03:41.187Z,0
2018-09-09T03:04:41.977Z,0
2018-09-09T03:05:40.977Z,0
2018-09-09T03:06:40.920Z,0
2018-09-09T03:07:40.914Z,0
2018-09-09T03:08:40.433Z,0
2018-09-09T03:09:40.707Z,0
2018-09-09T03:10:40.136Z,0
2018-09-09T03:11:40.140Z,0
2018-09-09T03:12:41.159Z,0
2018-09-09T03:13:40.392Z,0
2018-09-09T03:14:40.903Z,0
2018-09-09T03:15:40.938Z,0
2018-09-09T03:16:41.157Z,0
2018-09-09T03:17:40.893Z,0
2018-09-09T03:18:40.625Z,0
2018-09-09T03:19:40.928Z,0
2018-09-09T03:20:40.858Z,0
2018-09-09T03:21:40.859Z,0
2018-09-09T03:22:40.849Z,0
2018-09-09T03:23:41.118Z,0
2018-09-09T03:24:40.592Z,0
2018-09-09T03:25:40.956Z,0
2018-09-09T03:26:40.607Z,0
2018-09-09T03:27:40.841Z,0
2018-09-09T03:28:41.069Z,0
2018-09-09T03:29:41.104Z,0
2018-09-09T03:30:41.148Z,0
2018-09-09T03:31:40.320Z,0
2018-09-09T03:32:40.820Z,0
2018-09-09T03:33:40.559Z,0
2018-09-09T03:34:40.033Z,0
2018-09-09T03:35:40.670Z,0
2018-09-09T03:36:40.559Z,0
2018-09-09T03:37:40.857Z,0
2018-09-09T03:38:40.805Z,0
2018-09-09T03:39:40.289Z,0
2018-09-09T03:40:40.657Z,0
2018-09-09T03:41:40.856Z,0
2018-09-09T03:42:41.054Z,0
2018-09-09T03:43:40.822Z,0
2018-09-09T03:44:41.037Z,0
2018-09-09T03:45:40.414Z,0
2018-09-09T03:46:40.518Z,0
2018-09-09T03:47:40.792Z,0
2018-09-09T03:48:40.759Z,0
2018-09-09T03:49:41.045Z,0
2018-09-09T03:50:41.081Z,0
2018-09-09T03:51:40.266Z,0
2018-09-09T03:52:40.753Z,0
2018-09-09T03:53:40.503Z,0
2018-09-09T03:54:41.012Z,0
2018-09-09T03:55:40.761Z,0
2018-09-09T03:56:40.558Z,0
2018-09-09T03:57:40.767Z,0
2018-09-09T03:58:40.988Z,0
2018-09-09T03:59:40.767Z,0
2018-09-09T04:00:40.811Z,0
2018-09-09T04:01:40.499Z,0
2018-09-09T04:02:40.755Z,0
2018-09-09T04:03:40.205Z,0
2018-09-09T04:04:40.709Z,0
2018-09-09T04:05:41.032Z,0
2018-09-09T04:06:40.971Z,0
2018-09-09T04:07:40.699Z,0
2018-09-09T04:08:40.710Z,0
2018-09-09T04:09:40.700Z,0
2018-09-09T04:10:40.716Z,0
2018-09-09T04:11:40.709Z,0
2018-09-09T04:12:40.679Z,0
2018-09-09T04:13:40.450Z,0
2018-09-09T04:14:40.437Z,0
2018-09-09T04:15:40.451Z,0
2018-09-09T04:16:39.907Z,0
2018-09-09T04:17:40.708Z,0
2018-09-09T04:18:40.692Z,0
2018-09-09T04:19:40.684Z,0
2018-09-09T04:20:40.469Z,0
2018-09-09T04:21:40.609Z,0
2018-09-09T04:22:40.637Z,0
2018-09-09T04:23:40.407Z,0
2018-09-09T04:24:39.855Z,0
2018-09-09T04:25:40.392Z,0
2018-09-09T04:26:40.100Z,0
2018-09-09T04:27:40.610Z,0
2018-09-09T04:28:40.629Z,0
2018-09-09T04:29:40.623Z,0
2018-09-09T04:30:40.403Z,0
2018-09-09T04:31:40.585Z,0
2018-09-09T04:32:40.602Z,0
2018-09-09T04:33:40.333Z,0
2018-09-09T04:34:40.319Z,0
2018-09-09T04:35:41.451Z,0
2018-09-09T04:36:40.649Z,0
2018-09-09T04:37:40.317Z,0
2018-09-09T04:38:40.327Z,0
2018-09-09T04:39:40.559Z,0
2018-09-09T04:40:40.933Z,0
2018-09-09T04:41:40.811Z,0
2018-09-09T04:42:40.533Z,0
2018-09-09T04:43:40.553Z,5
2018-09-09T04:44:40.546Z,5
2018-09-09T04:45:40.593Z,5
2018-09-09T04:46:40.935Z,5
2018-09-09T04:47:40.541Z,5
2018-09-09T04:48:40.779Z,10
2018-09-09T04:49:40.527Z,10
2018-09-09T04:50:40.545Z,10
2018-09-09T04:51:40.302Z,10
2018-09-09T04:52:40.109Z,10
2018-09-09T04:53:40.526Z,10
2018-09-09T04:54:40.498Z,10
2018-09-09T04:55:40.535Z,10
2018-09-09T04:56:40.285Z,10
2018-09-09T04:57:40.237Z,15
2018-09-09T04:58:40.241Z,15
2018-09-09T04:59:40.216Z,15
2018-09-09T05:00:40.500Z,15
2018-09-09T05:01:40.490Z,20
2018-09-09T05:02:40.730Z,20
2018-09-09T05:03:40.768Z,20
2018-09-09T05:04:40.479Z,20
2018-09-09T05:05:40.715Z,20
2018-09-09T05:06:40.195Z,25
2018-09-09T05:07:40.460Z,25
2018-09-09T05:08:40.441Z,25
2018-09-09T05:09:40.753Z,25
2018-09-09T05:10:40.461Z,30
2018-09-09T05:11:40.438Z,30
2018-09-09T05:12:40.451Z,30
2018-09-09T05:13:40.421Z,35
2018-09-09T05:14:40.423Z,35
2018-09-09T05:15:40.193Z,35
2018-09-09T05:16:40.667Z,35
2018-09-09T05:17:40.393Z,40
2018-09-09T05:18:40.419Z,40
2018-09-09T05:19:40.161Z,40
2018-09-09T05:20:41.472Z,40
2018-09-09T05:21:40.384Z,40
2018-09-09T05:22:40.159Z,50
2018-09-09T05:23:40.128Z,45
2018-09-09T05:24:40.648Z,45
2018-09-09T05:25:40.120Z,50
2018-09-09T05:26:40.368Z,50
2018-09-09T05:27:40.118Z,55
2018-09-09T05:28:40.612Z,60
2018-09-09T05:29:40.622Z,65
2018-09-09T05:30:40.674Z,70
2018-09-09T05:31:40.152Z,70
2018-09-09T05:32:40.396Z,75
2018-09-09T05:33:40.354Z,80
2018-09-09T05:34:39.831Z,100
2018-09-09T05:35:39.876Z,125
2018-09-09T05:36:40.281Z,115
2018-09-09T05:37:40.594Z,85
2018-09-09T05:38:40.375Z,75
2018-09-09T05:39:40.327Z,80
2018-09-09T05:40:40.147Z,85
2018-09-09T05:41:40.077Z,85
2018-09-09T05:42:40.579Z,85
2018-09-09T05:43:40.331Z,90
2018-09-09T05:44:40.954Z,95
2018-09-09T05:45:40.305Z,90
2018-09-09T05:46:40.078Z,85
2018-09-09T05:47:40.565Z,80
2018-09-09T05:48:40.576Z,80
2018-09-09T05:49:40.570Z,80
2018-09-09T05:50:40.630Z,85
2018-09-09T05:51:39.539Z,90
2018-09-09T05:52:40.049Z,95
2018-09-09T05:53:40.304Z,100
2018-09-09T05:54:40.563Z,115
2018-09-09T05:55:40.025Z,115
2018-09-09T05:56:40.550Z,115
2018-09-09T05:57:40.649Z,110
2018-09-09T05:58:40.538Z,110
2018-09-09T05:59:40.525Z,100
2018-09-09T06:00:40.559Z,105
2018-09-09T06:01:40.536Z,110
2018-09-09T06:02:40.019Z,115
2018-09-09T06:03:40.532Z,105
2018-09-09T06:04:40.252Z,95
2018-09-09T06:05:40.554Z,95
2018-09-09T06:06:44.305Z,95
2018-09-09T06:07:40.252Z,100
2018-09-09T06:08:40.248Z,100
2018-09-09T06:09:40.521Z,100
2018-09-09T06:10:40.292Z,105
2018-09-09T06:11:40.494Z,115
2018-09-09T06:12:40.264Z,120
2018-09-09T06:13:39.972Z,120
2018-09-09T06:14:39.966Z,120
2018-09-09T06:15:39.783Z,120
2018-09-09T06:16:39.974Z,125
2018-09-09T06:17:40.224Z,125
2018-09-09T06:18:39.957Z,130
2018-09-09T06:19:39.708Z,140
2018-09-09T06:20:40.290Z,140
2018-09-09T06:21:40.556Z,145
2018-09-09T06:22:39.955Z,150
2018-09-09T06:23:40.208Z,155
2018-09-09T06:24:40.210Z,160
2018-09-09T06:25:40.209Z,165
2018-09-09T06:26:39.940Z,175
2018-09-09T06:27:40.203Z,180
2018-09-09T06:28:40.203Z,185
2018-09-09T06:29:40.211Z,200
2018-09-09T06:30:39.725Z,220
2018-09-09T06:31:40.193Z,230
2018-09-09T06:32:40.202Z,230
2018-09-09T06:33:40.350Z,230
2018-09-09T06:34:40.463Z,215
2018-09-09T06:35:40.303Z,200
2018-09-09T06:36:40.188Z,205
2018-09-09T06:37:40.473Z,210
2018-09-09T06:38:40.191Z,225
2018-09-09T06:39:39.953Z,245
2018-09-09T06:40:39.727Z,265
2018-09-09T06:41:39.919Z,275
2018-09-09T06:42:39.673Z,270
2018-09-09T06:43:39.942Z,240
2018-09-09T06:44:39.946Z,240
2018-09-09T06:45:39.747Z,230
2018-09-09T06:46:39.679Z,220
2018-09-09T06:47:40.178Z,200
2018-09-09T06:48:40.190Z,220
2018-09-09T06:49:40.448Z,255
2018-09-09T06:50:40.202Z,260
2018-09-09T06:51:40.242Z,250
2018-09-09T06:52:40.450Z,235
2018-09-09T06:53:40.192Z,215
2018-09-09T06:54:39.678Z,220
2018-09-09T06:55:40.126Z,200
2018-09-09T06:56:40.195Z,205
2018-09-09T06:57:39.988Z,215
2018-09-09T06:58:40.193Z,215
2018-09-09T06:59:39.947Z,200
2018-09-09T07:00:40.054Z,185
2018-09-09T07:01:39.694Z,185
2018-09-09T07:02:40.198Z,195
2018-09-09T07:03:40.242Z,190
2018-09-09T07:04:40.224Z,200
2018-09-09T07:05:40.527Z,190
2018-09-09T07:06:40.517Z,175
2018-09-09T07:07:39.964Z,170
2018-09-09T07:08:39.963Z,175
2018-09-09T07:09:39.944Z,180
2018-09-09T07:10:39.955Z,180
2018-09-09T07:11:41.366Z,190
2018-09-09T07:12:40.490Z,190
2018-09-09T07:13:40.221Z,190
2018-09-09T07:14:39.716Z,195
2018-09-09T07:15:40.056Z,210
2018-09-09T07:16:40.514Z,215
2018-09-09T07:17:39.973Z,240
2018-09-09T07:18:40.570Z,250
2018-09-09T07:19:40.536Z,240
2018-09-09T07:20:39.539Z,240
2018-09-09T07:21:39.771Z,260
2018-09-09T07:22:40.838Z,285
2018-09-09T07:23:40.498Z,255
2018-09-09T07:24:39.982Z,295
2018-09-09T07:25:40.280Z,305
2018-09-09T07:26:39.997Z,295
2018-09-09T07:27:40.013Z,240
2018-09-09T07:28:40.306Z,260
2018-09-09T07:29:40.005Z,265
2018-09-09T07:30:40.089Z,275
2018-09-09T07:31:40.008Z,245
2018-09-09T07:32:40.273Z,300
2018-09-09T07:33:40.540Z,310
2018-09-09T07:34:40.281Z,285
2018-09-09T07:35:40.040Z,295
2018-09-09T07:36:39.755Z,310
2018-09-09T07:37:40.576Z,285
2018-09-09T07:38:39.805Z,290
2018-09-09T07:39:40.569Z,305
2018-09-09T07:40:39.547Z,290
2018-09-09T07:41:40.312Z,270
2018-09-09T07:42:40.312Z,290
2018-09-09T07:43:40.314Z,295
2018-09-09T07:44:40.329Z,285
2018-09-09T07:45:40.130Z,275
2018-09-09T07:46:41.222Z,270
2018-09-09T07:47:40.330Z,265
2018-09-09T07:48:40.131Z,280
2018-09-09T07:49:40.066Z,255
2018-09-09T07:50:40.575Z,245
2018-09-09T07:51:40.108Z,250
2018-09-09T07:52:39.582Z,255
2018-09-09T07:53:40.385Z,255
2018-09-09T07:54:40.356Z,260
2018-09-09T07:55:39.784Z,260
2018-09-09T07:56:40.350Z,265
2018-09-09T07:57:40.627Z,265
2018-09-09T07:58:40.156Z,265
2018-09-09T07:59:40.406Z,280
2018-09-09T08:00:40.373Z,285
2018-09-09T08:01:40.110Z,295
2018-09-09T08:02:40.109Z,255
2018-09-09T08:03:40.137Z,290
2018-09-09T08:04:40.139Z,305
2018-09-09T08:05:40.174Z,300
2018-09-09T08:06:40.233Z,290
2018-09-09T08:07:40.296Z,295
2018-09-09T08:08:40.669Z,305
2018-09-09T08:09:40.149Z,320
2018-09-09T08:10:40.440Z,265
2018-09-09T08:11:40.417Z,260
2018-09-09T08:12:40.161Z,300
2018-09-09T08:13:40.434Z,295
2018-09-09T08:14:40.168Z,290
2018-09-09T08:15:39.930Z,245
2018-09-09T08:16:40.750Z,260
2018-09-09T08:17:40.433Z,285
2018-09-09T08:18:40.172Z,290
2018-09-09T08:19:40.732Z,285
2018-09-09T08:20:39.957Z,285
2018-09-09T08:21:40.482Z,280
2018-09-09T08:22:40.760Z,260
2018-09-09T08:23:40.838Z,270
2018-09-09T08:24:40.217Z,260
2018-09-09T08:25:40.476Z,245
2018-09-09T08:26:40.479Z,255
2018-09-09T08:27:39.949Z,265
2018-09-09T08:28:40.216Z,275
2018-09-09T08:29:40.219Z,275
2018-09-09T08:30:40.538Z,280
2018-09-09T08:31:40.551Z,275
2018-09-09T08:32:40.494Z,275
2018-09-09T08:33:40.521Z,275
2018-09-09T08:34:40.324Z,285
2018-09-09T08:35:40.950Z,275
2018-09-09T08:36:40.280Z,280
2018-09-09T08:37:41.350Z,280
2018-09-09T08:38:40.529Z,280
2018-09-09T08:39:40.531Z,280
2018-09-09T08:40:39.814Z,280
2018-09-09T08:41:40.275Z,295
2018-09-09T08:42:40.539Z,290
2018-09-09T08:43:40.281Z,285
2018-09-09T08:44:40.294Z,295
2018-09-09T08:45:40.909Z,275
2018-09-09T08:46:40.020Z,285
2018-09-09T08:47:40.081Z,300
2018-09-09T08:48:40.827Z,305
2018-09-09T08:49:40.841Z,310
2018-09-09T08:50:40.658Z,310
2018-09-09T08:51:40.321Z,300
2018-09-09T08:52:40.847Z,245
2018-09-09T08:53:40.582Z,230
2018-09-09T08:54:40.582Z,325
2018-09-09T08:55:40.091Z,315
2018-09-09T08:56:40.299Z,320
2018-09-09T08:57:40.874Z,325
2018-09-09T08:58:40.583Z,320
2018-09-09T08:59:40.587Z,320
2018-09-09T09:00:40.070Z,325
2018-09-09T09:01:40.610Z,320
2018-09-09T09:02:40.102Z,315
2018-09-09T09:03:40.581Z,310
2018-09-09T09:04:40.342Z,295
2018-09-09T09:05:40.640Z,285
2018-09-09T09:06:40.882Z,305
2018-09-09T09:07:41.902Z,300
2018-09-09T09:08:40.350Z,310
2018-09-09T09:09:40.089Z,320
2018-09-09T09:10:40.727Z,320
2018-09-09T09:11:40.379Z,300
2018-09-09T09:12:40.960Z,315
2018-09-09T09:13:40.890Z,320
2018-09-09T09:14:40.757Z,320
2018-09-09T09:15:40.102Z,320
2018-09-09T09:16:40.104Z,325
2018-09-09T09:17:40.653Z,320
2018-09-09T09:18:40.937Z,320
2018-09-09T09:19:40.649Z,325
2018-09-09T09:20:40.494Z,325
2018-09-09T09:21:40.122Z,325
2018-09-09T09:22:40.371Z,330
2018-09-09T09:23:40.522Z,330
2018-09-09T09:24:40.388Z,330
2018-09-09T09:25:40.723Z,335
2018-09-09T09:26:40.405Z,340
2018-09-09T09:27:40.918Z,340
2018-09-09T09:28:40.669Z,345
2018-09-09T09:29:40.403Z,335
2018-09-09T09:30:41.080Z,345
2018-09-09T09:31:40.432Z,350
2018-09-09T09:32:40.714Z,345
2018-09-09T09:33:40.952Z,315
2018-09-09T09:34:40.154Z,330
2018-09-09T09:35:41.069Z,335
2018-09-09T09:36:40.710Z,355
2018-09-09T09:37:40.715Z,360
2018-09-09T09:38:40.490Z,360
2018-09-09T09:39:40.444Z,365
2018-09-09T09:40:40.310Z,355
2018-09-09T09:41:40.716Z,350
2018-09-09T09:42:40.762Z,350
2018-09-09T09:43:40.197Z,335
2018-09-09T09:44:41.064Z,315
2018-09-09T09:45:40.907Z,330
2018-09-09T09:46:40.446Z,310
2018-09-09T09:47:40.461Z,320
2018-09-09T09:48:40.748Z,345
2018-09-09T09:49:40.213Z,360
2018-09-09T09:50:40.754Z,360
2018-09-09T09:51:40.213Z,355
2018-09-09T09:52:40.222Z,345
2018-09-09T09:53:40.672Z,340
2018-09-09T09:54:41.004Z,320
2018-09-09T09:55:40.456Z,335
2018-09-09T09:56:40.513Z,365
2018-09-09T09:57:40.738Z,370
2018-09-09T09:58:41.066Z,370
2018-09-09T09:59:40.236Z,375
2018-09-09T10:00:40.509Z,375
2018-09-09T10:01:41.046Z,370
2018-09-09T10:02:40.563Z,375
2018-09-09T10:03:40.855Z,375
2018-09-09T10:04:40.790Z,375
2018-09-09T10:05:40.825Z,375
2018-09-09T10:06:40.806Z,370
2018-09-09T10:07:40.276Z,350
2018-09-09T10:08:41.110Z,360
2018-09-09T10:09:41.054Z,360
2018-09-09T10:10:40.544Z,355
2018-09-09T10:11:40.813Z,320
2018-09-09T10:12:40.561Z,340
2018-09-09T10:13:41.347Z,355
2018-09-09T10:14:40.649Z,310
2018-09-09T10:15:40.348Z,345
2018-09-09T10:16:41.102Z,350
2018-09-09T10:17:40.850Z,350
2018-09-09T10:18:40.905Z,350
2018-09-09T10:19:40.595Z,375
2018-09-09T10:20:40.873Z,375
2018-09-09T10:21:40.614Z,375
2018-09-09T10:22:40.860Z,370
2018-09-09T10:23:41.016Z,330
2018-09-09T10:24:40.643Z,355
2018-09-09T10:25:40.634Z,360
2018-09-09T10:26:41.146Z,365
2018-09-09T10:27:40.128Z,335
2018-09-09T10:28:40.638Z,340
2018-09-09T10:29:40.650Z,370
2018-09-09T10:30:40.905Z,365
2018-09-09T10:31:40.645Z,360
2018-09-09T10:32:40.407Z,300
2018-09-09T10:33:40.671Z,305
2018-09-09T10:34:40.953Z,310
2018-09-09T10:35:40.966Z,285
2018-09-09T10:36:40.417Z,290
2018-09-09T10:37:40.942Z,275
2018-09-09T10:38:44.392Z,295
2018-09-09T10:39:40.895Z,290
2018-09-09T10:40:40.482Z,275
2018-09-09T10:41:40.971Z,275
2018-09-09T10:42:40.935Z,255
2018-09-09T10:43:40.927Z,260
2018-09-09T10:44:40.699Z,275
2018-09-09T10:45:40.494Z,265
2018-09-09T10:46:40.591Z,275
2018-09-09T10:47:40.507Z,295
2018-09-09T10:48:40.494Z,300
2018-09-09T10:49:40.749Z,305
2018-09-09T10:50:40.984Z,280
2018-09-09T10:51:41.031Z,280
2018-09-09T10:52:41.024Z,295
2018-09-09T10:53:40.998Z,260
2018-09-09T10:54:41.007Z,255
2018-09-09T10:55:41.081Z,285
2018-09-09T10:56:40.996Z,265
2018-09-09T10:57:41.000Z,265
2018-09-09T10:58:40.867Z,295
2018-09-09T10:59:40.501Z,315
2018-09-09T11:00:40.786Z,330
2018-09-09T11:01:41.321Z,325
2018-09-09T11:02:40.819Z,320
2018-09-09T11:03:41.057Z,320
2018-09-09T11:04:40.812Z,305
2018-09-09T11:05:40.833Z,305
2018-09-09T11:06:40.794Z,320
2018-09-09T11:07:41.087Z,320
2018-09-09T11:08:40.816Z,320
2018-09-09T11:09:41.077Z,310
2018-09-09T11:10:40.847Z,280
2018-09-09T11:11:40.839Z,280
2018-09-09T11:12:41.830Z,270
2018-09-09T11:13:40.587Z,285
2018-09-09T11:14:40.580Z,265
2018-09-09T11:15:41.293Z,265
2018-09-09T11:16:41.095Z,285
2018-09-09T11:17:40.847Z,290
2018-09-09T11:18:41.097Z,285
2018-09-09T11:19:41.130Z,280
2018-09-09T11:20:41.136Z,270
2018-09-09T11:21:40.874Z,255
2018-09-09T11:22:41.127Z,245
2018-09-09T11:23:40.365Z,235
2018-09-09T11:24:41.927Z,210
2018-09-09T11:25:40.966Z,190
2018-09-09T11:26:40.889Z,190
2018-09-09T11:27:40.882Z,195
2018-09-09T11:28:40.899Z,210
2018-09-09T11:29:40.660Z,225
2018-09-09T11:30:41.198Z,220
2018-09-09T11:31:41.186Z,200
2018-09-09T11:32:41.426Z,205
2018-09-09T11:33:40.926Z,225
2018-09-09T11:34:41.450Z,195
2018-09-09T11:35:40.923Z,230
2018-09-09T11:36:41.187Z,230
2018-09-09T11:37:41.197Z,230
2018-09-09T11:38:41.236Z,230
2018-09-09T11:39:43.394Z,230
2018-09-09T11:40:41.619Z,225
2018-09-09T11:41:40.696Z,225
2018-09-09T11:42:40.715Z,225
2018-09-09T11:43:41.485Z,225
2018-09-09T11:44:40.732Z,230
2018-09-09T11:45:41.029Z,230
2018-09-09T11:46:40.977Z,230
2018-09-09T11:47:41.509Z,230
2018-09-09T11:48:40.982Z,230
2018-09-09T11:49:40.990Z,230
2018-09-09T11:50:41.258Z,235
2018-09-09T11:51:41.269Z,235
2018-09-09T11:52:41.001Z,235
2018-09-09T11:53:41.260Z,235
2018-09-09T11:54:41.562Z,240
2018-09-09T11:55:41.536Z,235
2018-09-09T11:56:41.016Z,235
2018-09-09T11:57:41.016Z,240
2018-09-09T11:58:41.010Z,240
2018-09-09T11:59:41.282Z,240
2018-09-09T12:00:41.065Z,240
2018-09-09T12:01:41.279Z,240
2018-09-09T12:02:41.276Z,240
2018-09-09T12:03:41.578Z,240
2018-09-09T12:04:41.290Z,230
2018-09-09T12:05:40.782Z,240
2018-09-09T12:06:41.576Z,240
2018-09-09T12:07:41.925Z,240
2018-09-09T12:08:41.604Z,245
2018-09-09T12:09:41.350Z,240
2018-09-09T12:10:41.137Z,235
2018-09-09T12:11:41.369Z,230
2018-09-09T12:12:41.071Z,225
2018-09-09T12:13:41.804Z,225
2018-09-09T12:14:41.340Z,220
2018-09-09T12:15:41.467Z,215
2018-09-09T12:16:41.633Z,215
2018-09-09T12:17:41.356Z,210
2018-09-09T12:18:41.631Z,210
2018-09-09T12:19:41.612Z,210
2018-09-09T12:20:41.113Z,205
2018-09-09T12:21:41.105Z,205
2018-09-09T12:22:41.630Z,195
2018-09-09T12:23:41.382Z,190
2018-09-09T12:24:40.880Z,185
2018-09-09T12:25:41.675Z,175
2018-09-09T12:26:40.922Z,195
2018-09-09T12:27:41.650Z,190
2018-09-09T12:28:41.391Z,195
2018-09-09T12:29:41.134Z,185
2018-09-09T12:30:41.482Z,185
2018-09-09T12:31:41.163Z,185
2018-09-09T12:32:42.137Z,185
2018-09-09T12:33:41.435Z,180
2018-09-09T12:34:41.410Z,180
2018-09-09T12:35:40.677Z,180
2018-09-09T12:36:41.402Z,180
2018-09-09T12:37:41.536Z,185
2018-09-09T12:38:41.683Z,185
2018-09-09T12:39:42.648Z,185
2018-09-09T12:40:41.712Z,185
2018-09-09T12:41:41.692Z,180
2018-09-09T12:42:41.694Z,180
2018-09-09T12:43:41.693Z,180
2018-09-09T12:44:41.703Z,185
2018-09-09T12:45:41.227Z,180
2018-09-09T12:46:41.461Z,180
2018-09-09T12:47:41.481Z,185
2018-09-09T12:48:40.925Z,190
2018-09-09T12:49:41.485Z,185
2018-09-09T12:50:41.491Z,185
2018-09-09T12:51:41.477Z,185
2018-09-09T12:52:41.477Z,180
2018-09-09T12:53:41.488Z,185
2018-09-09T12:54:41.771Z,185
2018-09-09T12:55:41.253Z,185
2018-09-09T12:56:41.765Z,185
2018-09-09T12:57:41.751Z,185
2018-09-09T12:58:41.496Z,185
2018-09-09T12:59:41.785Z,185
2018-09-09T13:00:41.866Z,185
2018-09-09T13:01:41.500Z,190
2018-09-09T13:02:41.503Z,190
2018-09-09T13:03:41.756Z,190
2018-09-09T13:04:41.253Z,190
2018-09-09T13:05:41.257Z,190
2018-09-09T13:06:41.289Z,190
2018-09-09T13:07:41.544Z,190
2018-09-09T13:08:41.546Z,190
2018-09-09T13:09:41.583Z,190
2018-09-09T13:10:41.603Z,190
2018-09-09T13:11:41.575Z,190
2018-09-09T13:12:41.571Z,190
2018-09-09T13:13:41.336Z,195
2018-09-09T13:14:41.577Z,190
2018-09-09T13:15:41.654Z,190
2018-09-09T13:16:41.830Z,190
2018-09-09T13:17:41.582Z,190
2018-09-09T13:18:41.342Z,190
2018-09-09T13:19:41.644Z,190
2018-09-09T13:20:41.354Z,185
2018-09-09T13:21:41.353Z,185
2018-09-09T13:22:41.352Z,185
2018-09-09T13:23:41.352Z,185
2018-09-09T13:24:41.620Z,185
2018-09-09T13:25:41.366Z,185
2018-09-09T13:26:41.441Z,185
2018-09-09T13:27:41.627Z,185
2018-09-09T13:28:41.400Z,185
2018-09-09T13:29:41.111Z,185
2018-09-09T13:30:41.218Z,185
2018-09-09T13:31:41.918Z,180
2018-09-09T13:32:41.401Z,180
2018-09-09T13:33:41.716Z,180
2018-09-09T13:34:41.141Z,180
2018-09-09T13:35:41.978Z,180
2018-09-09T13:36:41.701Z,175
2018-09-09T13:37:41.666Z,175
2018-09-09T13:38:41.938Z,175
2018-09-09T13:39:41.729Z,180
2018-09-09T13:40:41.466Z,175
2018-09-09T13:41:41.668Z,175
2018-09-09T13:42:41.959Z,175
2018-09-09T13:43:41.440Z,175
2018-09-09T13:44:41.689Z,175
2018-09-09T13:45:41.726Z,180
2018-09-09T13:46:41.444Z,165
2018-09-09T13:47:41.463Z,165
2018-09-09T13:48:41.579Z,160
2018-09-09T13:49:41.711Z,165
2018-09-09T13:50:41.253Z,170
2018-09-09T13:51:41.727Z,170
2018-09-09T13:52:41.985Z,165
2018-09-09T13:53:41.732Z,165
2018-09-09T13:54:41.755Z,165
2018-09-09T13:55:41.478Z,155
2018-09-09T13:56:42.006Z,160
2018-09-09T13:57:42.037Z,165
2018-09-09T13:58:41.792Z,160
2018-09-09T13:59:41.744Z,165
2018-09-09T14:00:41.821Z,170
2018-09-09T14:01:41.521Z,170
2018-09-09T14:02:41.790Z,170
2018-09-09T14:03:41.549Z,170
2018-09-09T14:04:41.842Z,170
2018-09-09T14:05:42.064Z,170
2018-09-09T14:06:41.793Z,170
2018-09-09T14:07:41.300Z,170
2018-09-09T14:08:41.270Z,170